Time;durP1;ratioP1;P1;durP2;ratioP2;P2;SDS_P1;SDS_P2;PMS_P1;PMS_P2;Temp;Humidity;BMP_temperature;BMP_pressure;BME280_temperature;BME280_humidity;BME280_pressure;Samples;Min_cycle;Max_cycle;Signal;HPM_P1;HPM_P2
2022/04/30 00:01:30;;;;;;;17.20;10.20;;;;;;;5.51;49.53;101076.29;130346;1268;108695;-78
2022/04/30 00:04:37;;;;;;;18.00;11.30;;;;;;;5.49;49.71;101073.27;130379;1268;108937;-79
2022/04/30 00:07:44;;;;;;;15.90;10.40;;;;;;;5.47;49.68;101073.02;130418;1267;106874;-83
2022/04/30 00:10:50;;;;;;;15.30;10.40;;;;;;;5.41;49.81;101074.62;130424;1268;108707;-83
2022/04/30 00:13:56;;;;;;;15.10;9.60;;;;;;;5.38;49.78;101073.44;130559;1267;108689;-79
2022/04/30 00:17:01;;;;;;;20.60;12.40;;;;;;;5.34;50.01;101074.05;130558;1268;108857;-80
2022/04/30 00:20:09;;;;;;;18.30;11.50;;;;;;;5.28;50.02;101066.84;130528;1266;107564;-81
2022/04/30 00:23:21;;;;;;;19.30;11.00;;;;;;;5.24;50.20;101067.14;130547;1266;108876;-81
2022/04/30 00:26:27;;;;;;;22.00;12.90;;;;;;;5.20;50.32;101068.23;130456;1268;108796;-82
2022/04/30 00:29:33;;;;;;;23.20;12.40;;;;;;;5.17;50.42;101066.17;130488;1267;108428;-81
2022/04/30 00:32:39;;;;;;;27.10;13.40;;;;;;;5.13;50.42;101070.45;130483;1268;108738;-81
2022/04/30 00:35:45;;;;;;;22.10;13.40;;;;;;;5.07;50.40;101069.94;130514;1268;108867;-81
2022/04/30 00:38:50;;;;;;;22.40;12.30;;;;;;;5.04;50.61;101070.13;130493;1268;108979;-81
2022/04/30 00:41:56;;;;;;;21.70;12.10;;;;;;;5.02;50.61;101072.36;130615;1267;108731;-81
2022/04/30 00:45:01;;;;;;;37.10;16.40;;;;;;;4.99;50.77;101072.73;130660;1268;109646;-81
2022/04/30 00:48:08;;;;;;;30.20;14.70;;;;;;;4.95;50.76;101072.29;130525;1267;108650;-82
2022/04/30 00:51:15;;;;;;;27.70;14.00;;;;;;;4.92;50.90;101069.63;130519;1266;108641;-82
2022/04/30 00:54:25;;;;;;;24.80;14.20;;;;;;;4.92;51.00;101068.42;130543;1268;108873;-83
2022/04/30 00:57:33;;;;;;;25.10;13.30;;;;;;;4.90;51.08;101067.83;130491;1268;108839;-81
2022/04/30 01:00:41;;;;;;;21.90;12.50;;;;;;;4.85;51.02;101070.81;130611;1268;108657;-79
2022/04/30 01:03:55;;;;;;;22.10;12.60;;;;;;;4.81;51.02;101068.39;130436;1268;108809;-81
2022/04/30 01:07:06;;;;;;;26.20;13.90;;;;;;;4.76;51.22;101068.75;130503;1267;107609;-82
2022/04/30 01:10:11;;;;;;;27.30;14.10;;;;;;;4.72;51.28;101065.08;130625;1268;108643;-79
2022/04/30 01:13:20;;;;;;;24.90;13.00;;;;;;;4.67;51.33;101063.63;130512;1266;108765;-79
2022/04/30 01:16:26;;;;;;;24.10;12.80;;;;;;;4.63;51.33;101061.39;130486;1268;108895;-78
2022/04/30 01:19:32;;;;;;;18.20;11.40;;;;;;;4.60;51.50;101061.77;130534;1268;108838;-79
2022/04/30 01:22:52;;;;;;;25.20;13.00;;;;;;;4.57;51.66;101062.67;130492;1268;108655;-80
2022/04/30 01:25:58;;;;;;;24.10;12.50;;;;;;;4.53;51.62;101062.04;130513;1267;107673;-78
2022/04/30 01:29:04;;;;;;;34.40;15.00;;;;;;;4.48;51.81;101066.02;130479;1266;108498;-79
2022/04/30 01:39:01;;;;;;;23.30;13.00;;;;;;;4.39;52.00;101065.33;130318;1267;254318;-79
2022/04/30 01:42:11;;;;;;;24.70;13.40;;;;;;;4.39;51.95;101069.09;130498;1268;108760;-80
2022/04/30 01:45:18;;;;;;;20.50;12.20;;;;;;;4.36;52.03;101068.71;130478;1266;108673;-78
2022/04/30 01:48:25;;;;;;;21.60;12.20;;;;;;;4.33;52.14;101062.34;130534;1268;108929;-78
2022/04/30 01:51:31;;;;;;;16.70;11.10;;;;;;;4.30;52.04;101067.11;130464;1267;108716;-78
2022/04/30 01:54:37;;;;;;;16.90;11.20;;;;;;;4.29;52.29;101068.08;130416;1268;108646;-78
2022/04/30 01:57:44;;;;;;;20.50;11.30;;;;;;;4.28;52.34;101066.16;130485;1268;109049;-78
2022/04/30 02:00:49;;;;;;;19.90;11.20;;;;;;;4.26;52.24;101066.67;130504;1268;108890;-78
2022/04/30 02:03:56;;;;;;;19.60;12.10;;;;;;;4.23;52.28;101067.37;130502;1267;108819;-77
2022/04/30 02:07:03;;;;;;;23.00;12.70;;;;;;;4.20;52.44;101069.13;130484;1268;108600;-78
2022/04/30 02:10:12;;;;;;;19.00;11.70;;;;;;;4.17;52.58;101068.08;130431;1267;108568;-78
2022/04/30 02:13:23;;;;;;;22.80;11.80;;;;;;;4.14;52.65;101063.15;130371;1267;108786;-79
2022/04/30 02:16:31;;;;;;;18.50;11.60;;;;;;;4.09;52.66;101062.20;130501;1267;108893;-77
2022/04/30 02:23:01;;;;;;;16.50;10.80;;;;;;;3.99;52.90;101060.32;130442;1268;108825;-79
2022/04/30 02:26:09;;;;;;;19.60;11.60;;;;;;;3.99;52.92;101058.41;130486;1268;108720;-81
2022/04/30 02:29:14;;;;;;;17.10;10.90;;;;;;;3.98;52.93;101058.32;130508;1268;108710;-81
2022/04/30 02:32:20;;;;;;;21.50;12.10;;;;;;;3.96;52.88;101061.60;130465;1268;108771;-80
2022/04/30 02:35:28;;;;;;;19.00;11.40;;;;;;;3.91;53.00;101059.24;130475;1266;108881;-80
2022/04/30 02:38:35;;;;;;;20.50;11.10;;;;;;;3.86;52.98;101055.85;130492;1268;107596;-79
2022/04/30 02:41:41;;;;;;;18.90;11.30;;;;;;;3.84;53.09;101057.69;130379;1268;108718;-79
2022/04/30 02:44:46;;;;;;;17.30;10.80;;;;;;;3.78;53.06;101054.89;130453;1268;108646;-80
2022/04/30 02:47:55;;;;;;;17.10;11.10;;;;;;;3.73;53.28;101054.66;130447;1267;107670;-81
2022/04/30 02:51:00;;;;;;;20.30;11.70;;;;;;;3.71;53.30;101051.27;130503;1268;108879;-80
2022/04/30 02:54:06;;;;;;;20.10;11.70;;;;;;;3.68;53.46;101053.35;130544;1267;108830;-78
2022/04/30 02:57:12;;;;;;;17.40;11.40;;;;;;;3.65;53.21;101053.70;130464;1268;108737;-79
2022/04/30 03:00:18;;;;;;;17.90;11.20;;;;;;;3.60;53.29;101053.14;130446;1266;108915;-80
2022/04/30 03:03:48;;;;;;;17.90;11.40;;;;;;;3.55;53.48;101048.13;130473;1268;108564;-79
2022/04/30 03:06:54;;;;;;;18.20;11.40;;;;;;;3.53;53.56;101044.70;130414;1265;109016;-81
2022/04/30 03:10:00;;;;;;;18.40;11.20;;;;;;;3.51;53.49;101042.86;130455;1268;108652;-79
2022/04/30 03:13:06;;;;;;;19.00;11.10;;;;;;;3.51;53.60;101041.84;130459;1268;108867;-81
2022/04/30 03:22:57;;;;;;;17.90;10.40;;;;;;;3.46;53.66;101038.44;130207;1268;109196;-80
2022/04/30 03:26:04;;;;;;;16.90;10.70;;;;;;;3.46;54.02;101039.10;130486;1267;107145;-79
2022/04/30 03:29:09;;;;;;;16.20;10.50;;;;;;;3.46;53.92;101038.26;130523;1267;108588;-78
2022/04/30 03:32:15;;;;;;;20.30;11.90;;;;;;;3.47;54.03;101035.19;130420;1268;108470;-78
2022/04/30 03:35:20;;;;;;;23.30;13.10;;;;;;;3.49;54.01;101040.38;130308;1268;108806;-77
2022/04/30 03:38:26;;;;;;;23.90;13.10;;;;;;;3.54;54.12;101045.04;130335;1268;108938;-79
2022/04/30 03:41:32;;;;;;;19.50;11.60;;;;;;;3.59;54.18;101042.30;130496;1267;108940;-81
2022/04/30 03:44:38;;;;;;;18.70;11.40;;;;;;;3.63;54.23;101038.35;130468;1268;107625;-80
2022/04/30 03:47:43;;;;;;;18.70;11.40;;;;;;;3.72;54.38;101039.38;130435;1268;108740;-80
2022/04/30 03:50:49;;;;;;;18.50;11.20;;;;;;;3.89;54.35;101040.70;130479;1268;108980;-81
2022/04/30 03:53:54;;;;;;;20.60;11.90;;;;;;;4.05;54.28;101043.47;130551;1267;108563;-78
2022/04/30 03:57:00;;;;;;;18.70;11.10;;;;;;;4.21;54.26;101041.92;130416;1268;108954;-81
2022/04/30 04:00:07;;;;;;;20.10;11.20;;;;;;;4.41;54.32;101038.80;130468;1267;108972;-80
2022/04/30 04:03:19;;;;;;;15.90;10.50;;;;;;;4.60;54.40;101042.20;130464;1266;108963;-82
2022/04/30 04:06:25;;;;;;;16.40;10.30;;;;;;;4.74;54.28;101041.02;130494;1268;108871;-81
2022/04/30 04:09:30;;;;;;;19.10;11.00;;;;;;;4.87;54.32;101038.08;130420;1267;108901;-81
2022/04/30 04:12:36;;;;;;;15.00;10.50;;;;;;;5.00;54.41;101036.02;130515;1267;108634;-80
2022/04/30 04:19:05;;;;;;;17.40;11.60;;;;;;;5.38;54.44;101042.58;130447;1267;108652;-83
2022/04/30 04:22:10;;;;;;;19.40;12.30;;;;;;;5.56;54.43;101040.66;130449;1267;108340;-84
2022/04/30 04:28:39;;;;;;;18.90;11.60;;;;;;;5.98;54.56;101037.17;130497;1266;108758;-75
2022/04/30 04:31:45;;;;;;;18.50;12.00;;;;;;;6.18;54.39;101036.18;130342;1268;108813;-86
2022/04/30 04:34:50;;;;;;;17.30;12.30;;;;;;;6.40;54.45;101038.24;130374;1267;108907;-82
2022/04/30 04:37:56;;;;;;;19.80;13.90;;;;;;;6.63;54.42;101038.34;130492;1267;107256;-83
2022/04/30 04:41:01;;;;;;;20.80;13.80;;;;;;;6.89;54.84;101038.27;130405;1268;108497;-77
2022/04/30 04:44:07;;;;;;;21.80;14.40;;;;;;;7.12;54.66;101037.33;130340;1267;108808;-78
2022/04/30 04:47:13;;;;;;;21.40;13.80;;;;;;;7.36;54.76;101040.86;130306;1267;108642;-77
2022/04/30 04:50:19;;;;;;;17.40;12.80;;;;;;;7.60;55.00;101040.17;130306;1268;108770;-78
2022/04/30 04:53:24;;;;;;;18.30;12.90;;;;;;;7.82;54.92;101039.05;130306;1267;108686;-79
2022/04/30 04:56:30;;;;;;;18.80;13.30;;;;;;;8.06;55.22;101038.66;130345;1267;107693;-79
2022/04/30 04:59:36;;;;;;;18.10;13.20;;;;;;;8.32;54.99;101040.38;130288;1268;108651;-78
2022/04/30 05:02:41;;;;;;;18.90;13.20;;;;;;;8.57;55.23;101038.64;130267;1268;108966;-76
2022/04/30 05:05:47;;;;;;;19.30;13.20;;;;;;;8.80;55.25;101037.73;130323;1268;108722;-78
2022/04/30 05:08:52;;;;;;;21.90;13.30;;;;;;;9.02;55.02;101034.71;130337;1267;108856;-80
2022/04/30 05:12:00;;;;;;;20.60;14.30;;;;;;;9.15;54.82;101037.77;130341;1267;108736;-80
2022/04/30 05:15:07;;;;;;;24.20;14.40;;;;;;;9.17;54.70;101037.23;130447;1268;107634;-82
2022/04/30 05:18:13;;;;;;;18.70;12.90;;;;;;;9.20;54.91;101042.83;130409;1268;108672;-82
2022/04/30 05:21:18;;;;;;;18.10;13.20;;;;;;;9.27;54.80;101043.73;130490;1267;108620;-78
2022/04/30 05:24:24;;;;;;;19.70;12.80;;;;;;;9.38;54.45;101041.91;130684;1267;108802;-82
2022/04/30 05:27:29;;;;;;;19.50;13.20;;;;;;;9.50;54.48;101042.73;130683;1268;108733;-78
2022/04/30 05:30:35;;;;;;;17.00;12.00;;;;;;;9.55;54.38;101046.77;130394;1268;108853;-81
2022/04/30 05:33:41;;;;;;;19.80;14.20;;;;;;;9.59;54.47;101048.91;130457;1268;107623;-79
2022/04/30 05:36:46;;;;;;;17.70;11.60;;;;;;;9.63;54.27;101050.51;130444;1268;107719;-79
2022/04/30 05:39:52;;;;;;;16.60;11.30;;;;;;;9.67;54.08;101047.38;130442;1267;108750;-79
2022/04/30 05:42:57;;;;;;;14.10;11.20;;;;;;;9.74;54.12;101052.06;130341;1268;108748;-78
2022/04/30 05:46:02;;;;;;;17.50;11.10;;;;;;;9.85;54.03;101048.33;130344;1267;108790;-81
2022/04/30 05:49:08;;;;;;;17.90;11.60;;;;;;;9.96;54.28;101044.95;130400;1267;108757;-80
2022/04/30 05:52:13;;;;;;;24.10;12.60;;;;;;;10.09;54.15;101040.25;130418;1267;108758;-81
2022/04/30 05:55:19;;;;;;;18.80;12.40;;;;;;;10.24;54.12;101039.83;130349;1267;108685;-78
2022/04/30 05:58:25;;;;;;;20.40;12.90;;;;;;;10.33;54.35;101042.32;130410;1268;108812;-79
2022/04/30 06:01:30;;;;;;;19.00;13.70;;;;;;;10.38;54.40;101047.63;130344;1268;108875;-79
2022/04/30 06:04:36;;;;;;;17.50;12.90;;;;;;;10.33;54.52;101042.16;130422;1268;108722;-79
2022/04/30 06:07:41;;;;;;;16.10;12.20;;;;;;;10.30;54.23;101045.12;130350;1268;107844;-76
2022/04/30 06:10:46;;;;;;;19.80;13.50;;;;;;;10.23;53.44;101051.16;130335;1267;108936;-77
2022/04/30 06:13:52;;;;;;;18.10;12.90;;;;;;;10.18;54.21;101049.80;130333;1267;108465;-77
2022/04/30 06:16:58;;;;;;;17.60;12.70;;;;;;;10.21;53.82;101050.23;130321;1268;108913;-80
2022/04/30 06:20:03;;;;;;;18.30;12.90;;;;;;;10.31;54.18;101045.39;130287;1268;108763;-77
2022/04/30 06:23:09;;;;;;;20.30;13.90;;;;;;;10.42;53.95;101042.48;130545;1268;108725;-79
2022/04/30 06:26:14;;;;;;;18.20;13.30;;;;;;;10.53;53.96;101041.16;130631;1268;108751;-78
2022/04/30 06:29:22;;;;;;;20.20;14.50;;;;;;;10.59;54.25;101038.66;130354;1267;108710;-77
2022/04/30 06:32:28;;;;;;;19.90;13.90;;;;;;;10.67;54.42;101035.32;130520;1267;108645;-80
2022/04/30 06:35:35;;;;;;;18.50;13.10;;;;;;;10.80;54.06;101038.48;130318;1268;108971;-79
2022/04/30 06:38:40;;;;;;;17.40;12.70;;;;;;;10.91;54.12;101039.45;130479;1267;108646;-79
2022/04/30 06:41:46;;;;;;;18.60;13.10;;;;;;;10.99;54.01;101035.51;130381;1268;108840;-79
2022/04/30 06:44:54;;;;;;;19.50;11.90;;;;;;;11.12;54.13;101038.44;130498;1268;108782;-77
2022/04/30 06:47:59;;;;;;;17.80;11.80;;;;;;;11.27;53.90;101035.88;130756;1267;108662;-78
2022/04/30 06:51:05;;;;;;;18.60;12.80;;;;;;;11.40;53.65;101038.75;130794;1267;108977;-82
2022/04/30 06:57:33;;;;;;;16.60;10.50;;;;;;;11.59;53.54;101034.05;130432;1268;109150;-80
2022/04/30 07:04:04;;;;;;;15.70;10.90;;;;;;;11.87;53.26;101032.77;130486;1267;108566;-81
2022/04/30 07:07:10;;;;;;;15.00;10.50;;;;;;;11.98;52.81;101032.61;130444;1267;108748;-80
2022/04/30 07:10:15;;;;;;;13.70;9.80;;;;;;;12.06;52.39;101031.17;130375;1268;108786;-74
2022/04/30 07:13:21;;;;;;;12.40;8.80;;;;;;;12.11;52.34;101031.74;130358;1267;108038;-77
2022/04/30 08:01:53;;;;;;;9.50;6.00;;;;;;;13.66;50.26;101012.05;125937;1309;649421;-76
2022/04/30 08:04:59;;;;;;;5.90;4.60;;;;;;;13.94;47.58;101017.73;129533;1273;219906;-76
2022/04/30 08:08:04;;;;;;;7.10;3.70;;;;;;;14.04;48.87;101016.14;129837;1273;108639;-75
2022/04/30 08:11:10;;;;;;;7.30;4.80;;;;;;;14.14;48.04;101012.40;129830;1273;108670;-77
2022/04/30 08:14:15;;;;;;;7.00;3.60;;;;;;;14.21;45.48;101011.73;129852;1273;108701;-76
2022/04/30 08:17:21;;;;;;;3.50;3.00;;;;;;;14.30;45.98;101009.91;129843;1273;109233;-76
2022/04/30 08:20:26;;;;;;;7.10;3.70;;;;;;;14.40;46.52;101006.51;130259;1270;108634;-75
2022/04/30 08:23:33;;;;;;;5.00;3.10;;;;;;;14.50;43.36;101009.75;130234;1270;108749;-76
2022/04/30 08:26:38;;;;;;;4.80;2.60;;;;;;;14.59;45.78;101009.65;130196;1270;108569;-76
2022/04/30 08:29:44;;;;;;;5.30;2.70;;;;;;;14.72;45.13;101005.52;130209;1269;108789;-76
2022/04/30 08:32:51;;;;;;;5.10;2.80;;;;;;;14.86;45.55;101006.01;130176;1270;108709;-76
2022/04/30 08:35:57;;;;;;;3.30;2.70;;;;;;;15.02;44.32;101006.29;130230;1270;108817;-76
2022/04/30 08:39:02;;;;;;;4.80;2.90;;;;;;;15.18;44.83;101003.03;130268;1270;109306;-77
2022/04/30 08:42:08;;;;;;;5.00;2.70;;;;;;;15.34;44.10;101000.77;130140;1270;108568;-73
2022/04/30 08:45:14;;;;;;;4.30;2.60;;;;;;;15.50;43.19;101001.17;130145;1270;108862;-75
2022/04/30 08:48:20;;;;;;;3.80;2.50;;;;;;;15.65;43.66;101001.81;130209;1270;108723;-75
2022/04/30 08:51:25;;;;;;;5.90;2.70;;;;;;;15.87;44.19;100999.84;130234;1270;108840;-76
2022/04/30 08:54:30;;;;;;;4.70;2.60;;;;;;;16.06;42.00;100999.35;130090;1270;109253;-74
2022/04/30 08:57:37;;;;;;;3.50;2.40;;;;;;;16.20;41.53;100998.02;130240;1270;108759;-73
2022/04/30 09:00:44;;;;;;;4.30;2.20;;;;;;;16.34;42.33;100997.34;130147;1270;108978;-74
2022/04/30 09:03:50;;;;;;;5.00;2.60;;;;;;;16.49;42.82;100989.89;130134;1270;108827;-73
2022/04/30 09:06:57;;;;;;;4.40;2.60;;;;;;;16.68;43.06;100986.23;130123;1269;107627;-73
2022/04/30 09:10:05;;;;;;;5.80;3.90;;;;;;;16.84;42.62;100983.89;130067;1270;108945;-73
2022/04/30 09:13:13;;;;;;;4.40;2.50;;;;;;;16.96;40.88;100977.73;130115;1270;109185;-74
2022/04/30 09:16:23;;;;;;;4.30;2.30;;;;;;;17.01;40.63;100977.88;130246;1270;108881;-73
2022/04/30 09:19:29;;;;;;;4.10;2.60;;;;;;;17.13;41.04;100972.05;129930;1270;108854;-75
2022/04/30 09:22:35;;;;;;;4.10;2.60;;;;;;;17.27;40.31;100972.31;130111;1270;108760;-73
2022/04/30 09:25:53;;;;;;;4.50;2.50;;;;;;;17.41;40.71;100971.11;130254;1270;108832;-74
2022/04/30 09:29:02;;;;;;;2.90;2.00;;;;;;;17.59;40.59;100975.25;130302;1270;108747;-76
2022/04/30 09:32:09;;;;;;;4.10;2.30;;;;;;;17.63;37.53;100973.70;130241;1270;108838;-73
2022/04/30 09:38:44;;;;;;;2.70;2.10;;;;;;;17.45;39.25;100972.73;130105;1270;108712;-73
2022/04/30 09:41:50;;;;;;;3.50;2.40;;;;;;;17.53;39.03;100976.27;130090;1270;108830;-76
2022/04/30 09:44:55;;;;;;;4.70;2.50;;;;;;;17.49;35.44;100977.28;130159;1270;107631;-75
2022/04/30 09:48:02;;;;;;;3.30;2.40;;;;;;;17.40;38.37;100976.61;130125;1270;108738;-73
2022/04/30 09:54:31;;;;;;;4.00;2.20;;;;;;;17.28;36.69;100980.27;130057;1270;107730;-74
2022/04/30 09:57:38;;;;;;;4.50;2.70;;;;;;;17.25;37.04;100977.53;130063;1270;107669;-73
2022/04/30 10:00:43;;;;;;;3.90;2.30;;;;;;;17.30;37.64;100970.05;130040;1270;108846;-74
2022/04/30 10:03:51;;;;;;;3.50;2.30;;;;;;;17.39;34.83;100973.45;130139;1270;108664;-74
2022/04/30 10:07:00;;;;;;;4.10;2.20;;;;;;;17.35;36.46;100971.08;130047;1270;108730;-74
2022/04/30 10:10:14;;;;;;;4.60;2.50;;;;;;;17.50;37.41;100968.95;130064;1270;108639;-74
2022/04/30 10:13:30;;;;;;;5.90;2.50;;;;;;;17.61;36.07;100971.18;130007;1270;108825;-72
2022/04/30 10:16:37;;;;;;;3.80;2.30;;;;;;;17.64;35.88;100967.98;130092;1270;108829;-72
2022/04/30 10:19:43;;;;;;;3.30;1.90;;;;;;;17.72;36.20;100967.58;130197;1270;108843;-73
2022/04/30 10:22:56;;;;;;;4.40;2.00;;;;;;;17.82;34.39;100963.75;130059;1270;108645;-73
2022/04/30 10:26:09;;;;;;;2.80;2.10;;;;;;;17.95;35.22;100962.02;130104;1270;108828;-72
2022/04/30 10:29:14;;;;;;;4.00;2.80;;;;;;;18.09;33.39;100961.56;130128;1270;108948;-73
2022/04/30 10:32:28;;;;;;;3.50;2.10;;;;;;;18.04;33.91;100958.95;130093;1270;108832;-72
2022/04/30 10:35:36;;;;;;;3.70;2.10;;;;;;;18.14;35.43;100955.59;130106;1270;108660;-72
2022/04/30 10:38:43;;;;;;;3.80;2.10;;;;;;;18.26;33.58;100955.58;129992;1271;108658;-72
2022/04/30 10:41:53;;;;;;;3.10;1.80;;;;;;;18.23;32.54;100949.05;130032;1271;109166;-72
2022/04/30 10:44:59;;;;;;;4.00;1.80;;;;;;;18.24;33.04;100950.64;130101;1271;108689;-73
2022/04/30 10:48:07;;;;;;;2.60;1.70;;;;;;;18.33;33.47;100947.90;129985;1271;107699;-72
2022/04/30 10:51:14;;;;;;;2.50;1.40;;;;;;;18.45;32.89;100943.12;130073;1271;108886;-72
2022/04/30 10:54:21;;;;;;;2.00;1.30;;;;;;;18.61;32.04;100942.45;129969;1271;108898;-71
2022/04/30 10:57:27;;;;;;;1.70;1.10;;;;;;;18.61;30.21;100938.16;129971;1271;108814;-73
2022/04/30 11:00:32;;;;;;;1.70;0.90;;;;;;;18.67;30.02;100929.92;131048;1271;108593;-74
2022/04/30 11:03:38;;;;;;;2.50;1.00;;;;;;;18.72;30.10;100924.95;131580;1271;108853;-73
2022/04/30 11:06:44;;;;;;;1.70;0.90;;;;;;;18.87;30.15;100920.80;129972;1271;108812;-74
2022/04/30 11:09:49;;;;;;;2.20;1.00;;;;;;;18.92;30.33;100914.54;129997;1271;108684;-77
2022/04/30 11:13:07;;;;;;;4.10;1.10;;;;;;;18.96;29.67;100919.05;130051;1270;108776;-76
2022/04/30 11:16:17;;;;;;;3.20;1.20;;;;;;;18.82;28.62;100912.65;130057;1270;107708;-77
2022/04/30 11:19:24;;;;;;;2.80;1.20;;;;;;;18.75;29.43;100911.52;130261;1270;108669;-78
2022/04/30 11:22:30;;;;;;;2.30;1.00;;;;;;;18.66;28.28;100915.81;130211;1270;107650;-79
2022/04/30 11:25:37;;;;;;;1.30;1.00;;;;;;;18.66;28.38;100911.11;130149;1270;108741;-79
2022/04/30 11:28:42;;;;;;;4.00;1.40;;;;;;;18.68;28.87;100908.48;130256;1270;108689;-78
2022/04/30 11:31:53;;;;;;;2.70;1.40;;;;;;;18.64;28.65;100905.02;130340;1270;108702;-77
2022/04/30 11:35:04;;;;;;;2.00;1.30;;;;;;;18.52;30.05;100901.13;130308;1270;106938;-78
2022/04/30 11:38:12;;;;;;;1.90;1.30;;;;;;;18.60;29.77;100904.23;130231;1270;108646;-82
2022/04/30 11:41:17;;;;;;;2.00;1.20;;;;;;;18.69;30.79;100892.06;130203;1270;108268;-81
2022/04/30 11:44:25;;;;;;;1.50;1.00;;;;;;;18.81;30.22;100888.66;130190;1270;108785;-81
2022/04/30 11:47:31;;;;;;;2.20;1.30;;;;;;;18.86;29.93;100889.15;130176;1270;107480;-80
2022/04/30 11:50:40;;;;;;;2.10;1.30;;;;;;;18.83;29.20;100890.40;130121;1270;108804;-81
2022/04/30 11:53:45;;;;;;;3.00;1.30;;;;;;;18.75;28.69;100887.26;130145;1270;108678;-80
2022/04/30 11:56:52;;;;;;;1.50;1.00;;;;;;;18.74;30.00;100884.98;130269;1270;108884;-79
2022/04/30 11:59:59;;;;;;;1.30;1.00;;;;;;;18.71;28.07;100887.13;130216;1270;108849;-81
2022/04/30 12:03:04;;;;;;;1.30;1.00;;;;;;;18.76;27.87;100885.27;130209;1270;108786;-81
2022/04/30 12:06:10;;;;;;;1.90;1.10;;;;;;;18.74;27.92;100879.92;130188;1270;108716;-79
2022/04/30 12:09:17;;;;;;;2.10;1.40;;;;;;;18.71;27.82;100878.86;130217;1270;108743;-80
2022/04/30 12:12:24;;;;;;;1.90;1.10;;;;;;;18.81;29.42;100867.62;130171;1270;107752;-79
2022/04/30 12:15:33;;;;;;;2.50;1.40;;;;;;;18.90;29.40;100868.84;130171;1270;108698;-81
2022/04/30 12:25:28;;;;;;;10.90;2.60;;;;;;;19.02;28.78;100858.77;130198;1271;108292;-77
2022/04/30 12:28:45;;;;;;;2.70;1.20;;;;;;;19.01;28.26;100862.34;130204;1270;108679;-79
2022/04/30 12:31:52;;;;;;;2.80;1.70;;;;;;;18.95;28.38;100857.88;130234;1270;107780;-79
2022/04/30 12:34:58;;;;;;;2.60;1.70;;;;;;;18.96;29.47;100853.81;130281;1270;108834;-79
2022/04/30 12:38:09;;;;;;;2.40;1.40;;;;;;;19.08;29.55;100852.84;130149;1270;108819;-81
2022/04/30 12:41:14;;;;;;;3.60;2.20;;;;;;;19.10;29.48;100849.19;130357;1271;109130;-81
2022/04/30 12:44:19;;;;;;;4.60;2.30;;;;;;;19.13;29.93;100850.92;130317;1270;109056;-81
2022/04/30 12:47:25;;;;;;;2.30;1.70;;;;;;;19.17;29.82;100845.59;130268;1270;108686;-81
2022/04/30 12:50:32;;;;;;;2.20;1.60;;;;;;;19.20;29.91;100847.27;130124;1271;108697;-81
2022/04/30 12:53:38;;;;;;;3.30;1.90;;;;;;;19.13;29.45;100847.34;130270;1270;108700;-80
2022/04/30 12:56:44;;;;;;;2.60;1.70;;;;;;;18.95;28.77;100842.39;130268;1270;107432;-74
2022/04/30 12:59:53;;;;;;;3.40;2.00;;;;;;;18.76;29.77;100843.26;130185;1270;108654;-78
2022/04/30 13:02:58;;;;;;;2.90;1.60;;;;;;;18.70;29.60;100839.38;130067;1270;108962;-80
2022/04/30 13:06:05;;;;;;;2.20;1.80;;;;;;;18.74;30.17;100839.70;130149;1270;108460;-80
2022/04/30 13:15:57;;;;;;;2.90;1.60;;;;;;;18.62;28.70;100832.38;130291;1270;108784;-80
2022/04/30 13:19:04;;;;;;;2.30;1.90;;;;;;;18.55;29.63;100831.11;130250;1270;108832;-81
2022/04/30 13:22:10;;;;;;;3.50;1.90;;;;;;;18.61;29.73;100826.42;130250;1270;107732;-80
2022/04/30 13:25:16;;;;;;;3.40;2.00;;;;;;;18.57;29.18;100822.77;130292;1270;109101;-81
2022/04/30 13:28:22;;;;;;;3.20;2.00;;;;;;;18.51;28.66;100821.58;130255;1270;108814;-81
2022/04/30 13:31:27;;;;;;;2.20;1.70;;;;;;;18.49;29.38;100817.31;130287;1270;108702;-81
2022/04/30 13:34:33;;;;;;;3.70;2.00;;;;;;;18.61;29.06;100816.90;130295;1270;108638;-77
2022/04/30 13:37:40;;;;;;;2.20;1.70;;;;;;;18.64;29.08;100814.31;130303;1271;108158;-81
2022/04/30 13:40:45;;;;;;;5.50;2.00;;;;;;;18.72;29.27;100814.54;130267;1271;108872;-78
2022/04/30 13:43:51;;;;;;;2.80;1.80;;;;;;;18.71;29.04;100812.26;130298;1270;108716;-78
2022/04/30 13:46:56;;;;;;;1.90;1.70;;;;;;;18.69;29.27;100811.34;130173;1271;108956;-77
2022/04/30 13:50:04;;;;;;;3.10;1.90;;;;;;;18.63;29.03;100812.35;130185;1269;108750;-76
2022/04/30 13:53:10;;;;;;;2.80;2.00;;;;;;;18.47;28.67;100810.52;130186;1271;108693;-79
2022/04/30 13:56:16;;;;;;;4.80;2.10;;;;;;;18.40;28.55;100807.42;130209;1270;108689;-78
2022/04/30 13:59:24;;;;;;;2.30;1.80;;;;;;;18.46;29.08;100806.35;130225;1271;108789;-78
2022/04/30 14:02:30;;;;;;;4.40;1.80;;;;;;;18.65;29.15;100807.01;130268;1271;108806;-75
2022/04/30 14:05:35;;;;;;;2.50;1.80;;;;;;;18.74;28.47;100810.02;130202;1269;109000;-75
2022/04/30 14:08:41;;;;;;;4.50;1.80;;;;;;;18.77;28.73;100803.52;130228;1271;107512;-78
2022/04/30 14:11:46;;;;;;;3.40;1.80;;;;;;;18.85;28.55;100799.34;130188;1271;108724;-77
2022/04/30 14:14:58;;;;;;;3.10;1.80;;;;;;;18.70;27.34;100798.32;130200;1270;109085;-78
2022/04/30 14:18:21;;;;;;;2.70;1.80;;;;;;;18.64;28.64;100790.89;130214;1270;108697;-78
2022/04/30 14:21:26;;;;;;;2.20;1.70;;;;;;;18.75;28.60;100790.30;130189;1271;108775;-78
2022/04/30 14:24:32;;;;;;;2.80;1.50;;;;;;;18.77;28.77;100786.17;130131;1270;108447;-78
2022/04/30 14:27:38;;;;;;;3.50;1.70;;;;;;;18.79;28.31;100788.98;130176;1271;108712;-78
2022/04/30 14:30:44;;;;;;;3.40;1.60;;;;;;;18.78;28.50;100788.30;130152;1271;108489;-79
2022/04/30 14:33:50;;;;;;;3.80;2.00;;;;;;;18.76;27.48;100784.15;130210;1271;108827;-78
2022/04/30 14:36:55;;;;;;;1.80;1.50;;;;;;;18.76;27.96;100787.97;130217;1269;108738;-78
2022/04/30 14:40:02;;;;;;;3.40;1.80;;;;;;;18.66;27.04;100787.38;130200;1269;108858;-76
2022/04/30 14:43:09;;;;;;;2.20;1.80;;;;;;;18.65;27.81;100785.22;130167;1271;108722;-76
2022/04/30 14:46:14;;;;;;;2.90;1.90;;;;;;;18.67;28.50;100785.02;130097;1269;108797;-75
2022/04/30 14:49:19;;;;;;;2.70;1.70;;;;;;;18.69;27.12;100787.83;130182;1271;108236;-76
2022/04/30 14:52:26;;;;;;;4.60;2.20;;;;;;;18.62;27.73;100780.49;130000;1270;108724;-76
2022/04/30 14:55:31;;;;;;;2.90;2.00;;;;;;;18.56;27.70;100780.97;130163;1271;109057;-76
2022/04/30 14:58:39;;;;;;;2.60;2.00;;;;;;;18.49;26.93;100778.23;130136;1269;108728;-76
2022/04/30 15:01:45;;;;;;;4.10;2.20;;;;;;;18.27;27.32;100775.76;130238;1271;108756;-77
2022/04/30 15:04:50;;;;;;;3.30;2.20;;;;;;;18.20;28.08;100771.91;130180;1271;108651;-77
2022/04/30 15:07:56;;;;;;;3.90;2.30;;;;;;;18.19;27.99;100773.89;130146;1270;108717;-77
2022/04/30 15:11:01;;;;;;;6.10;2.20;;;;;;;18.11;27.70;100770.21;130197;1270;108778;-77
2022/04/30 15:14:06;;;;;;;3.20;2.60;;;;;;;18.05;27.97;100766.50;130158;1271;109099;-76
2022/04/30 15:17:13;;;;;;;3.90;2.70;;;;;;;18.00;28.35;100770.52;130356;1269;108764;-76
2022/04/30 15:20:18;;;;;;;4.00;2.30;;;;;;;17.92;28.14;100767.05;130161;1269;108651;-77
2022/04/30 15:23:24;;;;;;;4.70;2.40;;;;;;;17.90;28.52;100768.98;130496;1268;108648;-76
2022/04/30 15:26:30;;;;;;;4.50;2.80;;;;;;;17.88;28.20;100768.70;130410;1268;109179;-76
2022/04/30 15:29:35;;;;;;;4.60;3.50;;;;;;;17.78;28.45;100767.70;130387;1267;108869;-76
2022/04/30 15:32:40;;;;;;;6.60;3.40;;;;;;;17.78;28.78;100764.84;130360;1268;107694;-76
2022/04/30 15:35:46;;;;;;;5.30;3.00;;;;;;;17.76;28.58;100763.83;130374;1268;108710;-76
2022/04/30 15:38:51;;;;;;;4.70;2.90;;;;;;;17.64;28.65;100764.20;130381;1268;108959;-77